createdAt,value
2023-05-13T00:00:01.002Z,1.1
2023-05-13T00:01:00.555Z,1.1
2023-05-13T00:02:00.560Z,1.1
2023-05-13T00:03:01.034Z,1.1
2023-05-13T00:04:01.828Z,1.1
2023-05-13T00:05:00.740Z,1.1
2023-05-13T00:06:00.669Z,1.1
2023-05-13T00:07:00.603Z,1.1
2023-05-13T00:08:00.605Z,1.1
2023-05-13T00:09:00.721Z,1.1
2023-05-13T00:10:00.763Z,1.1
2023-05-13T00:11:00.568Z,1.1
2023-05-13T00:12:00.586Z,1.1
2023-05-13T00:13:00.629Z,1.1
2023-05-13T00:14:00.572Z,1.1
2023-05-13T00:15:00.675Z,1.1
2023-05-13T00:16:00.595Z,1.1
2023-05-13T00:17:00.868Z,1.1
2023-05-13T00:18:00.684Z,1.1
2023-05-13T00:19:01.463Z,1.1
2023-05-13T00:20:00.817Z,1.1
2023-05-13T00:21:00.701Z,1.1
2023-05-13T00:22:00.965Z,1.1
2023-05-13T00:23:00.684Z,1.1
2023-05-13T00:24:00.717Z,1.1
2023-05-13T00:25:00.819Z,1.1
2023-05-13T00:26:00.715Z,1.1
2023-05-13T00:27:00.688Z,1.1
2023-05-13T00:28:00.681Z,1.1
2023-05-13T00:29:00.874Z,1.1
2023-05-13T00:30:00.890Z,1.1
2023-05-13T00:31:00.789Z,1.1
2023-05-13T00:32:00.747Z,1.1
2023-05-13T00:33:00.831Z,1.1
2023-05-13T00:34:00.687Z,1.1
2023-05-13T00:35:01.043Z,1.1
2023-05-13T00:36:00.805Z,1.1
2023-05-13T00:37:00.639Z,1.1
2023-05-13T00:38:00.686Z,1.1
2023-05-13T00:39:00.695Z,1.1
2023-05-13T00:40:00.662Z,1.1
2023-05-13T00:41:00.591Z,1.1
2023-05-13T00:42:00.579Z,1.1
2023-05-13T00:43:00.912Z,1.1
2023-05-13T00:44:00.577Z,1.1
2023-05-13T00:45:00.606Z,1.1
2023-05-13T00:46:00.660Z,1.1
2023-05-13T00:47:00.674Z,1.1
2023-05-13T00:48:00.690Z,1.1
2023-05-13T00:49:00.636Z,1.1
2023-05-13T00:50:00.877Z,1.1
2023-05-13T00:51:00.620Z,1.1
2023-05-13T00:52:00.587Z,1.1
2023-05-13T00:53:00.592Z,1.1
2023-05-13T00:54:00.581Z,1.1
2023-05-13T00:55:00.596Z,1.1
2023-05-13T00:56:00.601Z,1.1
2023-05-13T00:57:00.746Z,1.1
2023-05-13T00:58:00.618Z,1.1
2023-05-13T00:59:00.617Z,1.1
2023-05-13T01:00:01.067Z,1.1
2023-05-13T01:01:01.282Z,1.1
2023-05-13T01:02:00.600Z,1.1
2023-05-13T01:03:00.657Z,1.1
2023-05-13T01:04:00.609Z,1.1
2023-05-13T01:05:00.624Z,1.1
2023-05-13T01:06:00.622Z,1.1
2023-05-13T01:07:01.275Z,1.1
2023-05-13T01:08:00.545Z,1.1
2023-05-13T01:09:00.491Z,1.1
2023-05-13T01:10:00.474Z,1.1
2023-05-13T01:11:00.435Z,1.1
2023-05-13T01:12:00.491Z,1.1
2023-05-13T01:13:00.438Z,1.1
2023-05-13T01:14:00.351Z,1.1
2023-05-13T01:15:00.334Z,1.1
2023-05-13T01:16:00.414Z,1.1
2023-05-13T01:17:00.461Z,1.1
2023-05-13T01:18:00.414Z,1.1
2023-05-13T01:19:00.284Z,1.1
2023-05-13T01:20:00.285Z,1.1
2023-05-13T01:21:00.275Z,1.1
2023-05-13T01:22:00.231Z,1.1
2023-05-13T01:23:00.228Z,1.1
2023-05-13T01:24:00.257Z,1.1
2023-05-13T01:25:00.220Z,1.1
2023-05-13T01:26:00.222Z,1.1
2023-05-13T01:27:00.290Z,1.1
2023-05-13T01:28:00.236Z,1.1
2023-05-13T01:29:00.225Z,1.1
2023-05-13T01:30:00.223Z,1.1
2023-05-13T01:31:00.289Z,1.1
2023-05-13T01:32:00.264Z,1.1
2023-05-13T01:33:00.255Z,1.1
2023-05-13T01:34:00.281Z,1.1
2023-05-13T01:35:00.243Z,1.1
2023-05-13T01:36:00.257Z,1.1
2023-05-13T01:37:00.245Z,1.1
2023-05-13T01:38:00.241Z,1.1
2023-05-13T01:39:00.822Z,1.1
2023-05-13T01:40:00.236Z,1.1
2023-05-13T01:41:00.310Z,1.1
2023-05-13T01:42:00.274Z,1.1
2023-05-13T01:43:00.234Z,1.1
2023-05-13T01:44:00.275Z,1.1
2023-05-13T01:45:00.253Z,1.1
2023-05-13T01:46:00.344Z,1.1
2023-05-13T01:47:00.264Z,1.1
2023-05-13T01:48:00.366Z,1.1
2023-05-13T01:49:00.258Z,1.1
2023-05-13T01:50:00.335Z,1.1
2023-05-13T01:51:00.251Z,1.1
2023-05-13T01:52:00.254Z,1.1
2023-05-13T01:53:00.248Z,1.1
2023-05-13T01:54:00.249Z,1.1
2023-05-13T01:55:01.674Z,1.1
2023-05-13T01:56:00.257Z,1.1
2023-05-13T01:57:00.311Z,1.1
2023-05-13T01:58:00.278Z,1.1
2023-05-13T01:59:00.362Z,1.1
2023-05-13T02:00:00.257Z,1.1
2023-05-13T02:01:01.872Z,1.1
2023-05-13T02:02:01.873Z,1.1
2023-05-13T02:03:01.959Z,1.1
2023-05-13T02:04:01.867Z,1.1
2023-05-13T02:05:02.124Z,1.1
2023-05-13T02:06:01.823Z,1.1
2023-05-13T02:07:02.112Z,1.1
2023-05-13T02:08:01.824Z,1.1
2023-05-13T02:09:01.827Z,1.1
2023-05-13T02:10:02.182Z,1.1
2023-05-13T02:11:03.125Z,1.1
2023-05-13T02:12:01.892Z,1.1
2023-05-13T02:13:02.096Z,1.1
2023-05-13T02:14:01.937Z,1.1
2023-05-13T02:15:02.211Z,1.1
2023-05-13T02:16:01.878Z,1.1
2023-05-13T02:17:01.956Z,1.1
2023-05-13T02:18:01.956Z,1.1
2023-05-13T02:19:01.986Z,1.1
2023-05-13T02:20:02.277Z,1.1
2023-05-13T02:21:02.112Z,1.1
2023-05-13T02:22:02.083Z,1.1
2023-05-13T02:23:01.976Z,1.1
2023-05-13T02:24:01.889Z,1.1
2023-05-13T02:25:01.809Z,1.1
2023-05-13T02:26:01.805Z,1.1
2023-05-13T02:27:02.453Z,1.1
2023-05-13T02:28:01.882Z,1.1
2023-05-13T02:29:02.162Z,1.1
2023-05-13T02:30:02.268Z,1.1
2023-05-13T02:31:01.857Z,1.1
2023-05-13T02:32:01.955Z,1.1
2023-05-13T02:33:01.975Z,1.1
2023-05-13T02:34:01.848Z,1.1
2023-05-13T02:35:01.827Z,1.1
2023-05-13T02:36:02.122Z,1.1
2023-05-13T02:37:01.959Z,1.1
2023-05-13T02:38:01.903Z,1.1
2023-05-13T02:39:01.847Z,1.1
2023-05-13T02:40:02.113Z,1.1
2023-05-13T02:41:01.853Z,1.1
2023-05-13T02:42:01.809Z,1.1
2023-05-13T02:43:02.290Z,1.1
2023-05-13T02:44:01.878Z,1.1
2023-05-13T02:45:01.885Z,1.1
2023-05-13T02:46:01.839Z,1.1
2023-05-13T02:47:01.798Z,1.1
2023-05-13T02:48:01.921Z,1.1
2023-05-13T02:49:03.076Z,1.1
2023-05-13T02:50:02.066Z,1.1
2023-05-13T02:51:01.893Z,1.1
2023-05-13T02:52:01.898Z,1.1
2023-05-13T02:53:01.816Z,1.1
2023-05-13T02:54:01.935Z,1.1
2023-05-13T02:55:01.907Z,1.1
2023-05-13T02:56:01.815Z,1.1
2023-05-13T02:57:01.810Z,1.1
2023-05-13T02:58:01.809Z,1.1
2023-05-13T02:59:01.972Z,1.1
2023-05-13T03:00:01.862Z,1.1
2023-05-13T03:01:01.895Z,1.1
2023-05-13T03:02:01.922Z,1.1
2023-05-13T03:03:01.884Z,1.1
2023-05-13T03:04:01.840Z,1.1
2023-05-13T03:05:01.968Z,1.1
2023-05-13T03:06:01.812Z,1.1
2023-05-13T03:07:01.869Z,1.1
2023-05-13T03:08:01.822Z,1.1
2023-05-13T03:09:01.825Z,1.1
2023-05-13T03:10:01.844Z,1.1
2023-05-13T03:11:01.820Z,1.1
2023-05-13T03:12:01.823Z,1.1
2023-05-13T03:13:01.852Z,1.1
2023-05-13T03:14:01.834Z,1.1
2023-05-13T03:15:02.578Z,1.1
2023-05-13T03:16:01.880Z,1.1
2023-05-13T03:17:01.872Z,1.1
2023-05-13T03:18:01.878Z,1.1
2023-05-13T03:19:01.908Z,1.1
2023-05-13T03:20:01.882Z,1.1
2023-05-13T03:21:01.872Z,1.1
2023-05-13T03:22:01.854Z,1.1
2023-05-13T03:23:01.850Z,1.1
2023-05-13T03:24:01.840Z,1.3
2023-05-13T03:25:01.838Z,1.3
2023-05-13T03:26:01.859Z,1.6
2023-05-13T03:27:01.840Z,1.8
2023-05-13T03:28:01.857Z,1.9
2023-05-13T03:29:01.892Z,2.3
2023-05-13T03:30:01.966Z,2.5
2023-05-13T03:31:02.673Z,2.3
2023-05-13T03:32:02.141Z,3.2
2023-05-13T03:33:01.938Z,3.4
2023-05-13T03:34:01.849Z,3.8
2023-05-13T03:35:01.851Z,4.1
2023-05-13T03:36:01.934Z,4.4
2023-05-13T03:37:01.891Z,4.4
2023-05-13T03:38:01.862Z,6.5
2023-05-13T03:39:01.854Z,6.9
2023-05-13T03:40:02.126Z,7.7
2023-05-13T03:41:01.889Z,8
2023-05-13T03:42:01.851Z,10.4
2023-05-13T03:43:01.887Z,11.3
2023-05-13T03:44:01.859Z,11.7
2023-05-13T03:45:01.877Z,13.7
2023-05-13T03:46:01.869Z,14.4
2023-05-13T03:47:02.841Z,16
2023-05-13T03:48:01.968Z,17
2023-05-13T03:49:01.917Z,19.2
2023-05-13T03:50:01.904Z,20.9
2023-05-13T03:51:01.881Z,24.7
2023-05-13T03:52:01.869Z,29.1
2023-05-13T03:53:01.878Z,35.7
2023-05-13T03:54:01.895Z,29.9
2023-05-13T03:55:01.872Z,30.2
2023-05-13T03:56:01.888Z,33.6
2023-05-13T03:57:01.872Z,32.9
2023-05-13T03:58:01.890Z,35.7
2023-05-13T03:59:01.894Z,37.9
2023-05-13T04:00:01.896Z,44.3
2023-05-13T04:01:01.898Z,53.6
2023-05-13T04:02:01.909Z,59.7
2023-05-13T04:03:02.526Z,56.3
2023-05-13T04:04:02.038Z,51.7
2023-05-13T04:05:01.920Z,56.9
2023-05-13T04:06:01.887Z,71.5
2023-05-13T04:07:01.910Z,75
2023-05-13T04:08:01.910Z,75
2023-05-13T04:09:01.878Z,72.3
2023-05-13T04:10:02.110Z,72.3
2023-05-13T04:11:01.889Z,75
2023-05-13T04:12:01.911Z,77.7
2023-05-13T04:13:01.885Z,75.9
2023-05-13T04:14:01.910Z,69.8
2023-05-13T04:15:01.957Z,66.5
2023-05-13T04:16:01.890Z,75.9
2023-05-13T04:17:01.922Z,69
2023-05-13T04:18:01.969Z,74.1
2023-05-13T04:19:02.572Z,79.6
2023-05-13T04:20:01.963Z,79.6
2023-05-13T04:21:01.927Z,83.5
2023-05-13T04:22:01.912Z,77.7
2023-05-13T04:23:01.898Z,83.5
2023-05-13T04:24:01.905Z,85.5
2023-05-13T04:25:01.939Z,86.5
2023-05-13T04:26:01.922Z,86.5
2023-05-13T04:27:01.900Z,88.6
2023-05-13T04:28:01.909Z,93
2023-05-13T04:29:01.920Z,94.1
2023-05-13T04:30:01.965Z,98.7
2023-05-13T04:31:01.913Z,104.8
2023-05-13T04:32:01.972Z,107.3
2023-05-13T04:33:02.001Z,104.8
2023-05-13T04:34:01.950Z,98.7
2023-05-13T04:35:02.740Z,83.5
2023-05-13T04:36:01.920Z,78.6
2023-05-13T04:37:01.900Z,87.6
2023-05-13T04:38:01.920Z,91.9
2023-05-13T04:39:01.913Z,85.5
2023-05-13T04:40:01.923Z,83.5
2023-05-13T04:41:01.923Z,78.6
2023-05-13T04:42:01.916Z,83.5
2023-05-13T04:43:01.919Z,86.5
2023-05-13T04:44:01.946Z,84.5
2023-05-13T04:45:01.929Z,86.5
2023-05-13T04:46:01.966Z,90.8
2023-05-13T04:47:01.922Z,84.5
2023-05-13T04:48:02.067Z,91.9
2023-05-13T04:49:02.443Z,104.8
2023-05-13T04:50:01.986Z,102.3
2023-05-13T04:51:03.344Z,98.7
2023-05-13T04:52:01.934Z,121
2023-05-13T04:53:01.928Z,108.6
2023-05-13T04:54:01.948Z,108.6
2023-05-13T04:55:01.961Z,143
2023-05-13T04:56:01.978Z,153.6
2023-05-13T04:57:01.929Z,159.3
2023-05-13T04:58:01.987Z,197.5
2023-05-13T04:59:01.951Z,212.2
2023-05-13T05:00:01.969Z,239.2
2023-05-13T05:01:01.955Z,250.9
2023-05-13T05:02:02.002Z,293.1
2023-05-13T05:03:02.002Z,359.1
2023-05-13T05:04:02.011Z,424.6
2023-05-13T05:05:02.704Z,434.9
2023-05-13T05:06:01.945Z,461.7
2023-05-13T05:07:02.631Z,539.3
2023-05-13T05:08:01.943Z,600.6
2023-05-13T05:09:01.969Z,600.6
2023-05-13T05:10:02.012Z,586.4
2023-05-13T05:11:01.961Z,622.5
2023-05-13T05:12:01.937Z,579.4
2023-05-13T05:13:01.997Z,607.8
2023-05-13T05:14:01.960Z,676.9
2023-05-13T05:15:01.977Z,710.1
2023-05-13T05:16:01.980Z,701.6
2023-05-13T05:17:01.994Z,772.1
2023-05-13T05:18:02.061Z,809.9
2023-05-13T05:19:02.023Z,829.5
2023-05-13T05:20:02.415Z,901.9
2023-05-13T05:21:02.709Z,934.9
2023-05-13T05:22:01.958Z,969
2023-05-13T05:23:02.759Z,957.5
2023-05-13T05:24:01.961Z,870.2
2023-05-13T05:25:01.963Z,800.3
2023-05-13T05:26:10.954Z,829.5
2023-05-13T05:27:01.979Z,710.1
2023-05-13T05:28:01.960Z,701.6
2023-05-13T05:29:01.968Z,676.9
2023-05-13T05:30:02.034Z,653
2023-05-13T05:31:02.483Z,630
2023-05-13T05:32:02.020Z,630
2023-05-13T05:33:02.033Z,653
2023-05-13T05:34:02.004Z,637.6
2023-05-13T05:35:02.130Z,622.5
2023-05-13T05:36:01.973Z,586.4
2023-05-13T05:37:02.027Z,615.1
2023-05-13T05:38:02.169Z,762.9
2023-05-13T05:39:02.736Z,762.9
2023-05-13T05:40:02.314Z,790.8
2023-05-13T05:41:02.047Z,839.5
2023-05-13T05:42:02.112Z,829.5
2023-05-13T05:43:01.991Z,790.8
2023-05-13T05:44:02.066Z,736
2023-05-13T05:45:02.648Z,744.8
2023-05-13T05:46:02.048Z,790.8
2023-05-13T05:47:02.216Z,859.8
2023-05-13T05:48:02.089Z,829.5
2023-05-13T05:49:02.071Z,781.4
2023-05-13T05:50:02.490Z,809.9
2023-05-13T05:51:02.048Z,849.6
2023-05-13T05:52:02.218Z,809.9
2023-05-13T05:53:02.000Z,849.6
2023-05-13T05:54:02.010Z,891.2
2023-05-13T05:55:03.145Z,957.5
2023-05-13T05:56:02.210Z,992.5
2023-05-13T05:57:01.996Z,992.5
2023-05-13T05:58:01.993Z,1053.6
2023-05-13T05:59:02.000Z,1187.5
2023-05-13T06:00:02.039Z,1260.7
2023-05-13T06:01:01.994Z,1291.2
2023-05-13T06:02:02.060Z,1387.2
2023-05-13T06:03:02.273Z,1526.4
2023-05-13T06:04:02.111Z,1563.4
2023-05-13T06:05:02.026Z,1620.5
2023-05-13T06:06:02.001Z,1659.7
2023-05-13T06:07:02.073Z,1659.7
2023-05-13T06:08:02.052Z,1620.5
2023-05-13T06:09:02.013Z,1563.4
2023-05-13T06:10:02.059Z,1526.4
2023-05-13T06:11:02.737Z,1762
2023-05-13T06:12:02.019Z,1870.6
2023-05-13T06:13:02.026Z,1938.9
2023-05-13T06:14:02.023Z,2009.8
2023-05-13T06:15:02.033Z,2034
2023-05-13T06:16:02.089Z,2058.4
2023-05-13T06:17:02.005Z,2009.8
2023-05-13T06:18:02.077Z,1870.6
2023-05-13T06:19:02.089Z,1962.2
2023-05-13T06:20:02.046Z,1741
2023-05-13T06:21:02.074Z,1544.8
2023-05-13T06:22:04.025Z,1455.2
2023-05-13T06:23:02.045Z,1387.2
2023-05-13T06:24:02.074Z,1291.2
2023-05-13T06:25:02.058Z,1275.8
2023-05-13T06:26:02.022Z,1159.4
2023-05-13T06:27:02.428Z,1053.6
2023-05-13T06:28:03.163Z,1105.3
2023-05-13T06:29:02.033Z,1028.7
2023-05-13T06:30:02.033Z,946.1
2023-05-13T06:31:02.086Z,957.5
2023-05-13T06:32:02.083Z,1092.1
2023-05-13T06:33:02.765Z,1132
2023-05-13T06:34:02.041Z,1275.8
2023-05-13T06:35:02.256Z,1455.2
2023-05-13T06:36:02.060Z,1699.9
2023-05-13T06:37:02.051Z,1826.4
2023-05-13T06:38:02.043Z,1870.6
2023-05-13T06:39:02.078Z,1826.4
2023-05-13T06:40:02.067Z,1699.9
2023-05-13T06:41:02.042Z,1679.7
2023-05-13T06:42:02.041Z,1826.4
2023-05-13T06:43:02.910Z,1848.4
2023-05-13T06:44:02.043Z,1720.4
2023-05-13T06:45:02.053Z,1699.9
2023-05-13T06:46:02.167Z,1699.9
2023-05-13T06:47:02.160Z,1582.3
2023-05-13T06:48:02.096Z,1563.4
2023-05-13T06:49:02.591Z,1544.8
2023-05-13T06:50:02.056Z,1437.9
2023-05-13T06:51:02.071Z,1354.4
2023-05-13T06:52:02.052Z,1490.4
2023-05-13T06:53:02.139Z,1338.3
2023-05-13T06:54:02.074Z,1526.4
2023-05-13T06:55:02.078Z,1640
2023-05-13T06:56:02.059Z,1679.7
2023-05-13T06:57:02.069Z,1582.3
2023-05-13T06:58:02.060Z,1508.3
2023-05-13T06:59:02.549Z,1526.4
2023-05-13T07:00:02.188Z,1582.3
2023-05-13T07:01:02.157Z,1601.3
2023-05-13T07:02:02.066Z,1544.8
2023-05-13T07:03:02.108Z,1804.7
2023-05-13T07:04:02.177Z,1783.3
2023-05-13T07:05:02.253Z,1455.2
2023-05-13T07:06:02.087Z,1582.3
2023-05-13T07:07:02.077Z,1938.9
2023-05-13T07:08:00.732Z,2009.8
2023-05-13T07:09:00.378Z,1826.4
2023-05-13T07:10:00.703Z,1720.4
2023-05-13T07:11:00.305Z,1848.4
2023-05-13T07:12:00.360Z,1741
2023-05-13T07:13:00.598Z,1563.4
2023-05-13T07:14:00.299Z,1354.4
2023-05-13T07:15:00.503Z,1275.8
2023-05-13T07:16:00.388Z,1563.4
2023-05-13T07:17:00.325Z,1938.9
2023-05-13T07:18:00.324Z,1659.7
2023-05-13T07:19:00.415Z,1403.9
2023-05-13T07:20:00.328Z,1601.3
2023-05-13T07:21:00.300Z,1544.8
2023-05-13T07:22:00.576Z,1472.7
2023-05-13T07:23:00.302Z,1245.7
2023-05-13T07:24:00.289Z,1092.1
2023-05-13T07:25:00.360Z,1053.6
2023-05-13T07:26:00.411Z,980.7
2023-05-13T07:27:00.291Z,923.7
2023-05-13T07:28:00.366Z,880.6
2023-05-13T07:29:00.323Z,880.6
2023-05-13T07:30:00.297Z,1187.5
2023-05-13T07:31:00.424Z,1354.4
2023-05-13T07:32:00.317Z,1245.7
2023-05-13T07:33:00.339Z,1403.9
2023-05-13T07:34:00.347Z,1544.8
2023-05-13T07:35:00.296Z,1563.4
2023-05-13T07:36:00.397Z,1582.3
2023-05-13T07:37:00.381Z,1582.3
2023-05-13T07:38:00.363Z,1601.3
2023-05-13T07:39:00.356Z,1601.3
2023-05-13T07:40:00.561Z,1582.3
2023-05-13T07:41:00.312Z,1508.3
2023-05-13T07:42:00.323Z,1455.2
2023-05-13T07:43:00.369Z,1387.2
2023-05-13T07:44:00.312Z,1403.9
2023-05-13T07:45:00.315Z,1455.2
2023-05-13T07:46:00.371Z,1508.3
2023-05-13T07:47:00.342Z,1640
2023-05-13T07:48:00.377Z,1720.4
2023-05-13T07:49:00.377Z,1848.4
2023-05-13T07:50:00.345Z,2009.8
2023-05-13T07:51:00.336Z,2238.1
2023-05-13T07:52:00.688Z,2677.9
2023-05-13T07:53:00.461Z,2809
2023-05-13T07:54:00.356Z,2646
2023-05-13T07:55:00.440Z,2265.1
2023-05-13T07:56:00.338Z,2238.1
2023-05-13T07:57:00.323Z,2108.2
2023-05-13T07:58:00.368Z,1962.2
2023-05-13T07:59:00.332Z,1915.9
2023-05-13T08:00:00.358Z,1741
2023-05-13T08:01:00.391Z,1762
2023-05-13T08:02:00.332Z,2159.2
2023-05-13T08:03:00.434Z,2347.8
2023-05-13T08:04:00.716Z,3321.1
2023-05-13T08:05:00.392Z,4168.3
2023-05-13T08:06:00.372Z,4021.3
2023-05-13T08:07:00.708Z,3926.3
2023-05-13T08:08:00.370Z,3568
2023-05-13T08:09:00.337Z,3926.3
2023-05-13T08:10:00.403Z,4532.1
2023-05-13T08:11:00.362Z,4642
2023-05-13T08:12:00.358Z,4532.1
2023-05-13T08:13:00.385Z,4372.4
2023-05-13T08:14:00.374Z,4425
2023-05-13T08:15:00.352Z,4425
2023-05-13T08:16:00.471Z,4532.1
2023-05-13T08:17:00.344Z,4269.1
2023-05-13T08:18:00.441Z,3742.9
2023-05-13T08:19:00.481Z,3165.8
2023-05-13T08:20:00.363Z,2742.6
2023-05-13T08:21:00.396Z,2646
2023-05-13T08:22:00.440Z,2710.1
2023-05-13T08:23:00.340Z,3054.3
2023-05-13T08:24:00.387Z,2946.7
2023-05-13T08:25:00.476Z,3054.3
2023-05-13T08:26:00.367Z,3321.1
2023-05-13T08:27:00.367Z,3525.6
2023-05-13T08:28:00.399Z,3654.5
2023-05-13T08:29:00.368Z,3128.2
2023-05-13T08:30:00.366Z,3242.6
2023-05-13T08:31:00.450Z,4118.8
2023-05-13T08:32:00.506Z,4218.4
2023-05-13T08:33:00.507Z,4021.3
2023-05-13T08:34:00.501Z,3973.5
2023-05-13T08:35:00.409Z,4478.2
2023-05-13T08:36:00.426Z,4811.5
2023-05-13T08:37:00.404Z,5169.5
2023-05-13T08:38:00.363Z,5047.1
2023-05-13T08:39:00.542Z,4811.5
2023-05-13T08:40:00.420Z,5231.6
2023-05-13T08:41:00.373Z,5358.2
2023-05-13T08:42:00.389Z,5294.6
2023-05-13T08:43:00.526Z,5231.6
2023-05-13T08:44:00.420Z,4811.5
2023-05-13T08:45:00.412Z,4218.4
2023-05-13T08:46:00.446Z,4320.5
2023-05-13T08:47:00.384Z,4754.3
2023-05-13T08:48:00.478Z,4754.3
2023-05-13T08:49:00.467Z,4586.8
2023-05-13T08:50:00.382Z,4697.8
2023-05-13T08:51:00.414Z,4927.9
2023-05-13T08:52:00.450Z,5422.7
2023-05-13T08:53:00.436Z,5047.1
2023-05-13T08:54:00.495Z,4754.3
2023-05-13T08:55:00.472Z,4372.4
2023-05-13T08:56:00.397Z,4642
2023-05-13T08:57:00.397Z,5487.9
2023-05-13T08:58:00.493Z,5231.6
2023-05-13T08:59:00.395Z,5231.6
2023-05-13T09:00:00.416Z,5047.1
2023-05-13T09:01:00.451Z,5620.7
2023-05-13T09:02:00.394Z,6185
2023-05-13T09:03:00.453Z,6111.5
2023-05-13T09:04:00.450Z,6185
2023-05-13T09:05:00.538Z,6111.5
2023-05-13T09:06:00.495Z,5688.3
2023-05-13T09:07:00.427Z,5422.7
2023-05-13T09:08:00.420Z,6038.9
2023-05-13T09:09:00.448Z,5688.3
2023-05-13T09:10:00.425Z,5107.8
2023-05-13T09:11:00.402Z,4642
2023-05-13T09:12:00.429Z,4168.3
2023-05-13T09:13:00.452Z,4021.3
2023-05-13T09:14:00.451Z,3973.5
2023-05-13T09:15:00.396Z,3833.5
2023-05-13T09:16:00.472Z,4021.3
2023-05-13T09:17:00.464Z,4218.4
2023-05-13T09:18:00.478Z,4118.8
2023-05-13T09:19:00.701Z,4021.3
2023-05-13T09:20:00.540Z,3483.7
2023-05-13T09:21:00.409Z,3361
2023-05-13T09:22:00.456Z,3401.4
2023-05-13T09:23:00.474Z,3128.2
2023-05-13T09:24:00.426Z,2742.6
2023-05-13T09:25:00.472Z,2583.5
2023-05-13T09:26:00.503Z,2583.5
2023-05-13T09:27:00.407Z,2842.8
2023-05-13T09:28:00.481Z,3165.8
2023-05-13T09:29:00.418Z,3321.1
2023-05-13T09:30:00.429Z,3568
2023-05-13T09:31:00.512Z,4168.3
2023-05-13T09:32:00.433Z,4168.3
2023-05-13T09:33:00.505Z,4168.3
2023-05-13T09:34:00.476Z,4069.8
2023-05-13T09:35:00.419Z,4069.8
2023-05-13T09:36:00.425Z,4372.4
2023-05-13T09:37:00.524Z,4425
2023-05-13T09:38:00.428Z,4320.5
2023-05-13T09:39:00.428Z,4532.1
2023-05-13T09:40:00.716Z,4697.8
2023-05-13T09:41:00.454Z,4754.3
2023-05-13T09:42:01.286Z,4642
2023-05-13T09:43:00.543Z,3973.5
2023-05-13T09:44:00.578Z,3281.6
2023-05-13T09:45:00.440Z,2946.7
2023-05-13T09:46:00.493Z,2677.9
2023-05-13T09:47:00.461Z,2462.8
2023-05-13T09:48:00.437Z,2347.8
2023-05-13T09:49:00.492Z,2211.5
2023-05-13T09:50:00.473Z,2133.6
2023-05-13T09:51:00.500Z,2083.2
2023-05-13T09:52:00.600Z,2185.2
2023-05-13T09:53:00.474Z,2265.1
2023-05-13T09:54:00.509Z,2292.3
2023-05-13T09:55:00.578Z,2522.4
2023-05-13T09:56:00.490Z,2742.6
2023-05-13T09:57:00.458Z,2742.6
2023-05-13T09:58:02.018Z,2775.6
2023-05-13T09:59:00.503Z,3165.8
2023-05-13T10:00:00.598Z,3742.9
2023-05-13T10:01:00.695Z,3833.5
2023-05-13T10:02:00.809Z,3926.3
2023-05-13T10:03:00.534Z,4168.3
2023-05-13T10:04:00.690Z,4269.1
2023-05-13T10:05:00.596Z,4118.8
2023-05-13T10:06:03.081Z,3879.6
2023-05-13T10:07:00.600Z,3742.9
2023-05-13T10:08:00.492Z,3879.6
2023-05-13T10:09:00.522Z,4021.3
2023-05-13T10:10:00.818Z,3926.3
2023-05-13T10:11:00.504Z,3568
2023-05-13T10:12:00.505Z,3361
2023-05-13T10:13:00.647Z,3361
2023-05-13T10:14:00.496Z,3401.4
2023-05-13T10:15:00.587Z,3525.6
2023-05-13T10:16:00.730Z,3568
2023-05-13T10:17:00.584Z,3442.3
2023-05-13T10:18:00.569Z,3321.1
2023-05-13T10:19:00.684Z,3321.1
2023-05-13T10:20:00.678Z,3281.6
2023-05-13T10:21:00.546Z,3973.5
2023-05-13T10:22:00.734Z,4642
2023-05-13T10:23:00.617Z,4532.1
2023-05-13T10:24:00.591Z,4118.8
2023-05-13T10:25:01.024Z,3654.5
2023-05-13T10:26:00.600Z,3525.6
2023-05-13T10:27:00.817Z,3442.3
2023-05-13T10:28:00.946Z,3568
2023-05-13T10:29:00.601Z,3654.5
2023-05-13T10:30:03.196Z,3568
2023-05-13T10:31:01.116Z,3242.6
2023-05-13T10:32:00.655Z,3128.2
2023-05-13T10:33:00.625Z,3054.3
2023-05-13T10:34:01.986Z,2982.2
2023-05-13T10:35:00.988Z,2877.1
2023-05-13T10:36:00.775Z,2911.7
2023-05-13T10:37:00.868Z,2809
2023-05-13T10:38:00.574Z,2677.9
2023-05-13T10:39:00.823Z,2742.6
2023-05-13T10:40:01.099Z,2877.1
2023-05-13T10:41:00.583Z,2842.8
2023-05-13T10:42:00.582Z,2775.6
2023-05-13T10:43:01.059Z,2677.9
2023-05-13T10:44:00.679Z,2492.4
2023-05-13T10:45:00.852Z,2347.8
2023-05-13T10:46:00.892Z,2319.9
2023-05-13T10:47:00.523Z,2265.1
2023-05-13T10:48:00.639Z,2185.2
2023-05-13T10:49:00.927Z,2108.2
2023-05-13T10:50:00.576Z,2058.4
2023-05-13T10:51:00.498Z,2009.8
2023-05-13T10:52:01.190Z,1915.9
2023-05-13T10:53:00.504Z,1893.1
2023-05-13T10:54:00.518Z,1962.2
2023-05-13T10:55:00.633Z,2009.8
2023-05-13T10:56:00.550Z,2009.8
2023-05-13T10:57:00.549Z,2034
2023-05-13T10:58:00.550Z,1938.9
2023-05-13T10:59:00.535Z,1870.6
2023-05-13T11:00:00.592Z,2108.2
2023-05-13T11:01:00.593Z,2265.1
2023-05-13T11:02:00.640Z,2319.9
2023-05-13T11:03:00.651Z,2265.1
2023-05-13T11:04:00.788Z,2292.3
2023-05-13T11:05:00.889Z,2376
2023-05-13T11:06:00.522Z,2583.5
2023-05-13T11:07:00.569Z,2492.4
2023-05-13T11:08:00.524Z,2292.3
2023-05-13T11:09:00.523Z,2083.2
2023-05-13T11:10:02.472Z,1962.2
2023-05-13T11:11:00.521Z,2058.4
2023-05-13T11:12:00.547Z,2108.2
2023-05-13T11:13:00.593Z,2185.2
2023-05-13T11:14:00.605Z,2433.5
2023-05-13T11:15:00.583Z,2614.6
2023-05-13T11:16:00.592Z,2911.7
2023-05-13T11:17:00.549Z,3654.5
2023-05-13T11:18:00.875Z,4069.8
2023-05-13T11:19:00.634Z,4269.1
2023-05-13T11:20:00.604Z,4168.3
2023-05-13T11:21:00.579Z,4069.8
2023-05-13T11:22:00.577Z,4642
2023-05-13T11:23:00.565Z,5169.5
2023-05-13T11:24:00.542Z,5294.6
2023-05-13T11:25:00.603Z,5487.9
2023-05-13T11:26:00.556Z,5422.7
2023-05-13T11:27:00.550Z,4987.1
2023-05-13T11:28:00.565Z,4532.1
2023-05-13T11:29:00.521Z,4021.3
2023-05-13T11:30:00.534Z,3442.3
2023-05-13T11:31:00.540Z,3321.1
2023-05-13T11:32:01.071Z,3401.4
2023-05-13T11:33:00.577Z,3654.5
2023-05-13T11:34:00.552Z,3879.6
2023-05-13T11:35:00.587Z,3742.9
2023-05-13T11:36:00.540Z,3788
2023-05-13T11:37:00.519Z,3654.5
2023-05-13T11:38:00.730Z,3128.2
2023-05-13T11:39:00.542Z,2982.2
2023-05-13T11:40:00.548Z,3525.6
2023-05-13T11:41:00.544Z,3611.1
2023-05-13T11:42:00.535Z,3698.5
2023-05-13T11:43:00.556Z,3611.1
2023-05-13T11:44:00.556Z,3204.1
2023-05-13T11:45:00.533Z,3401.4
2023-05-13T11:46:00.556Z,3833.5
2023-05-13T11:47:00.568Z,3654.5
2023-05-13T11:48:00.550Z,3568
2023-05-13T11:49:00.542Z,3973.5
2023-05-13T11:50:00.543Z,4168.3
2023-05-13T11:51:00.544Z,4425
2023-05-13T11:52:00.539Z,4869.3
2023-05-13T11:53:00.567Z,4697.8
2023-05-13T11:54:00.542Z,4532.1
2023-05-13T11:55:00.544Z,4642
2023-05-13T11:56:00.557Z,4320.5
2023-05-13T11:57:00.554Z,4425
2023-05-13T11:58:00.875Z,4425
2023-05-13T11:59:00.549Z,3879.6
2023-05-13T12:00:00.575Z,4021.3
2023-05-13T12:01:00.573Z,4987.1
2023-05-13T12:02:00.598Z,5553.9
2023-05-13T12:03:00.889Z,6185
2023-05-13T12:04:00.591Z,6970.7
2023-05-13T12:05:00.604Z,6970.7
2023-05-13T12:06:00.570Z,5896.2
2023-05-13T12:07:00.574Z,4532.1
2023-05-13T12:08:00.590Z,4425
2023-05-13T12:09:00.623Z,3973.5
2023-05-13T12:10:00.579Z,3242.6
2023-05-13T12:11:00.577Z,2911.7
2023-05-13T12:12:00.576Z,2492.4
2023-05-13T12:13:00.569Z,2376
2023-05-13T12:14:00.564Z,2185.2
2023-05-13T12:15:00.625Z,2108.2
2023-05-13T12:16:00.649Z,2238.1
2023-05-13T12:17:00.568Z,2552.8
2023-05-13T12:18:00.624Z,2677.9
2023-05-13T12:19:00.593Z,2614.6
2023-05-13T12:20:00.577Z,2742.6
2023-05-13T12:21:00.579Z,2742.6
2023-05-13T12:22:00.570Z,2877.1
2023-05-13T12:23:00.594Z,3483.7
2023-05-13T12:24:00.575Z,4118.8
2023-05-13T12:25:00.583Z,4811.5
2023-05-13T12:26:00.581Z,4927.9
2023-05-13T12:27:00.580Z,4168.3
2023-05-13T12:28:00.593Z,3281.6
2023-05-13T12:29:00.577Z,3204.1
2023-05-13T12:30:00.608Z,2946.7
2023-05-13T12:31:00.599Z,2492.4
2023-05-13T12:32:00.604Z,2238.1
2023-05-13T12:33:00.620Z,1962.2
2023-05-13T12:34:00.628Z,2058.4
2023-05-13T12:35:00.596Z,2009.8
2023-05-13T12:36:00.597Z,1804.7
2023-05-13T12:37:00.639Z,1659.7
2023-05-13T12:38:00.596Z,1544.8
2023-05-13T12:39:01.095Z,1544.8
2023-05-13T12:40:00.624Z,1659.7
2023-05-13T12:41:00.597Z,1640
2023-05-13T12:42:00.591Z,1699.9
2023-05-13T12:43:00.606Z,1938.9
2023-05-13T12:44:00.610Z,1985.8
2023-05-13T12:45:00.607Z,2058.4
2023-05-13T12:46:00.595Z,2462.8
2023-05-13T12:47:00.628Z,2492.4
2023-05-13T12:48:00.726Z,2211.5
2023-05-13T12:49:00.610Z,2319.9
2023-05-13T12:52:00.724Z,2376
2023-05-13T12:53:00.759Z,2376
2023-05-13T12:54:00.731Z,2677.9
2023-05-13T12:55:00.723Z,2742.6
2023-05-13T12:56:00.726Z,2842.8
2023-05-13T12:57:00.754Z,2809
2023-05-13T12:58:00.750Z,3242.6
2023-05-13T12:59:00.732Z,3926.3
2023-05-13T13:00:00.747Z,4425
2023-05-13T13:01:00.787Z,4754.3